sensor_id;sensor_type;location;lat;lon;timestamp;P1;durP1;ratioP1;P2;durP2;ratioP2
59271;SDS011;45043;51.068;7.026;2023-06-04T00:02:33;3.47;;;1.73;;
59271;SDS011;45043;51.068;7.026;2023-06-04T00:05:33;3.37;;;2.10;;
59271;SDS011;45043;51.068;7.026;2023-06-04T00:08:34;1.40;;;1.30;;
59271;SDS011;45043;51.068;7.026;2023-06-04T00:11:34;1.53;;;1.43;;
59271;SDS011;45043;51.068;7.026;2023-06-04T00:14:36;2.13;;;1.93;;
59271;SDS011;45043;51.068;7.026;2023-06-04T00:17:37;3.77;;;1.40;;
59271;SDS011;45043;51.068;7.026;2023-06-04T00:20:37;1.87;;;1.33;;
59271;SDS011;45043;51.068;7.026;2023-06-04T00:23:37;1.50;;;1.40;;
59271;SDS011;45043;51.068;7.026;2023-06-04T00:26:38;2.10;;;1.60;;
59271;SDS011;45043;51.068;7.026;2023-06-04T00:29:38;2.70;;;1.40;;
59271;SDS011;45043;51.068;7.026;2023-06-04T00:32:40;2.47;;;1.60;;
59271;SDS011;45043;51.068;7.026;2023-06-04T00:35:40;1.93;;;1.60;;
59271;SDS011;45043;51.068;7.026;2023-06-04T00:38:40;1.67;;;1.57;;
59271;SDS011;45043;51.068;7.026;2023-06-04T00:41:41;2.87;;;1.90;;
59271;SDS011;45043;51.068;7.026;2023-06-04T00:44:41;1.93;;;1.70;;
59271;SDS011;45043;51.068;7.026;2023-06-04T00:47:44;2.67;;;1.43;;
59271;SDS011;45043;51.068;7.026;2023-06-04T00:50:45;1.57;;;1.47;;
59271;SDS011;45043;51.068;7.026;2023-06-04T00:53:49;3.40;;;1.97;;
59271;SDS011;45043;51.068;7.026;2023-06-04T00:56:50;3.73;;;2.00;;
59271;SDS011;45043;51.068;7.026;2023-06-04T00:59:51;1.60;;;1.50;;
59271;SDS011;45043;51.068;7.026;2023-06-04T01:02:51;2.70;;;1.63;;
59271;SDS011;45043;51.068;7.026;2023-06-04T01:05:57;2.60;;;1.50;;
59271;SDS011;45043;51.068;7.026;2023-06-04T01:09:05;4.37;;;1.90;;
59271;SDS011;45043;51.068;7.026;2023-06-04T01:12:06;2.90;;;1.87;;
59271;SDS011;45043;51.068;7.026;2023-06-04T01:15:07;1.97;;;1.40;;
59271;SDS011;45043;51.068;7.026;2023-06-04T01:18:10;2.17;;;1.30;;
59271;SDS011;45043;51.068;7.026;2023-06-04T01:21:24;2.77;;;1.60;;
59271;SDS011;45043;51.068;7.026;2023-06-04T01:24:27;2.13;;;1.80;;
59271;SDS011;45043;51.068;7.026;2023-06-04T01:27:28;4.67;;;1.60;;
59271;SDS011;45043;51.068;7.026;2023-06-04T01:30:31;2.10;;;1.80;;
59271;SDS011;45043;51.068;7.026;2023-06-04T01:33:34;4.37;;;1.63;;
59271;SDS011;45043;51.068;7.026;2023-06-04T01:36:35;1.93;;;1.70;;
59271;SDS011;45043;51.068;7.026;2023-06-04T01:39:36;1.60;;;1.50;;
59271;SDS011;45043;51.068;7.026;2023-06-04T01:42:36;2.20;;;1.80;;
59271;SDS011;45043;51.068;7.026;2023-06-04T01:45:37;1.77;;;1.67;;
59271;SDS011;45043;51.068;7.026;2023-06-04T01:48:37;1.93;;;1.60;;
59271;SDS011;45043;51.068;7.026;2023-06-04T01:51:39;2.77;;;1.80;;
59271;SDS011;45043;51.068;7.026;2023-06-04T01:54:40;3.30;;;1.67;;
59271;SDS011;45043;51.068;7.026;2023-06-04T01:57:41;3.23;;;1.83;;
59271;SDS011;45043;51.068;7.026;2023-06-04T02:00:44;1.93;;;1.80;;
59271;SDS011;45043;51.068;7.026;2023-06-04T02:03:45;2.53;;;2.33;;
59271;SDS011;45043;51.068;7.026;2023-06-04T02:06:45;2.60;;;1.53;;
59271;SDS011;45043;51.068;7.026;2023-06-04T02:09:49;1.50;;;1.40;;
59271;SDS011;45043;51.068;7.026;2023-06-04T02:12:57;1.87;;;1.70;;
59271;SDS011;45043;51.068;7.026;2023-06-04T02:16:05;2.20;;;2.00;;
59271;SDS011;45043;51.068;7.026;2023-06-04T02:19:06;2.57;;;1.90;;
59271;SDS011;45043;51.068;7.026;2023-06-04T02:22:06;3.23;;;1.80;;
59271;SDS011;45043;51.068;7.026;2023-06-04T02:25:08;2.13;;;1.97;;
59271;SDS011;45043;51.068;7.026;2023-06-04T02:28:12;2.30;;;1.63;;
59271;SDS011;45043;51.068;7.026;2023-06-04T02:31:13;2.10;;;1.60;;
59271;SDS011;45043;51.068;7.026;2023-06-04T02:34:13;2.90;;;1.43;;
59271;SDS011;45043;51.068;7.026;2023-06-04T02:37:13;2.33;;;1.40;;
59271;SDS011;45043;51.068;7.026;2023-06-04T02:40:14;1.90;;;1.50;;
59271;SDS011;45043;51.068;7.026;2023-06-04T02:43:15;1.60;;;1.40;;
59271;SDS011;45043;51.068;7.026;2023-06-04T02:46:15;1.73;;;1.50;;
59271;SDS011;45043;51.068;7.026;2023-06-04T02:49:16;1.60;;;1.50;;
59271;SDS011;45043;51.068;7.026;2023-06-04T02:52:16;1.50;;;1.40;;
59271;SDS011;45043;51.068;7.026;2023-06-04T02:55:17;1.93;;;1.80;;
59271;SDS011;45043;51.068;7.026;2023-06-04T02:58:17;2.70;;;2.00;;
59271;SDS011;45043;51.068;7.026;2023-06-04T03:01:21;1.83;;;1.60;;
59271;SDS011;45043;51.068;7.026;2023-06-04T03:04:23;2.53;;;1.73;;
59271;SDS011;45043;51.068;7.026;2023-06-04T03:07:23;2.07;;;1.80;;
59271;SDS011;45043;51.068;7.026;2023-06-04T03:10:25;1.70;;;1.43;;
59271;SDS011;45043;51.068;7.026;2023-06-04T03:13:27;4.97;;;1.90;;
59271;SDS011;45043;51.068;7.026;2023-06-04T03:16:28;2.40;;;1.70;;
59271;SDS011;45043;51.068;7.026;2023-06-04T03:19:28;3.20;;;1.80;;
59271;SDS011;45043;51.068;7.026;2023-06-04T03:22:29;2.50;;;1.70;;
59271;SDS011;45043;51.068;7.026;2023-06-04T03:25:29;2.37;;;1.87;;
59271;SDS011;45043;51.068;7.026;2023-06-04T03:28:30;2.00;;;1.73;;
59271;SDS011;45043;51.068;7.026;2023-06-04T03:31:32;1.77;;;1.63;;
59271;SDS011;45043;51.068;7.026;2023-06-04T03:34:33;1.77;;;1.67;;
59271;SDS011;45043;51.068;7.026;2023-06-04T03:37:34;2.60;;;1.70;;
59271;SDS011;45043;51.068;7.026;2023-06-04T03:40:35;1.93;;;1.60;;
59271;SDS011;45043;51.068;7.026;2023-06-04T03:43:38;2.20;;;1.90;;
59271;SDS011;45043;51.068;7.026;2023-06-04T03:46:41;3.37;;;1.67;;
59271;SDS011;45043;51.068;7.026;2023-06-04T03:49:42;2.03;;;1.43;;
59271;SDS011;45043;51.068;7.026;2023-06-04T03:52:44;2.40;;;1.67;;
59271;SDS011;45043;51.068;7.026;2023-06-04T03:55:45;2.17;;;1.70;;
59271;SDS011;45043;51.068;7.026;2023-06-04T03:58:46;3.87;;;1.67;;
59271;SDS011;45043;51.068;7.026;2023-06-04T04:01:47;1.70;;;1.60;;
59271;SDS011;45043;51.068;7.026;2023-06-04T04:04:47;1.67;;;1.40;;
59271;SDS011;45043;51.068;7.026;2023-06-04T04:07:50;1.50;;;1.40;;
59271;SDS011;45043;51.068;7.026;2023-06-04T04:10:54;3.03;;;1.60;;
59271;SDS011;45043;51.068;7.026;2023-06-04T04:13:56;1.90;;;1.73;;
59271;SDS011;45043;51.068;7.026;2023-06-04T04:16:57;4.67;;;1.87;;
59271;SDS011;45043;51.068;7.026;2023-06-04T04:19:58;4.10;;;1.70;;
59271;SDS011;45043;51.068;7.026;2023-06-04T04:22:58;3.27;;;1.83;;
59271;SDS011;45043;51.068;7.026;2023-06-04T04:26:00;3.13;;;1.80;;
59271;SDS011;45043;51.068;7.026;2023-06-04T04:29:02;2.97;;;1.83;;
59271;SDS011;45043;51.068;7.026;2023-06-04T04:32:05;2.03;;;1.83;;
59271;SDS011;45043;51.068;7.026;2023-06-04T04:35:10;2.10;;;1.90;;
59271;SDS011;45043;51.068;7.026;2023-06-04T04:38:13;2.50;;;1.77;;
59271;SDS011;45043;51.068;7.026;2023-06-04T04:41:20;2.83;;;1.57;;
59271;SDS011;45043;51.068;7.026;2023-06-04T04:44:24;2.03;;;1.80;;
59271;SDS011;45043;51.068;7.026;2023-06-04T04:47:26;1.70;;;1.60;;
59271;SDS011;45043;51.068;7.026;2023-06-04T04:50:26;1.90;;;1.73;;
59271;SDS011;45043;51.068;7.026;2023-06-04T04:53:28;2.10;;;1.80;;
59271;SDS011;45043;51.068;7.026;2023-06-04T04:56:28;2.50;;;1.80;;
59271;SDS011;45043;51.068;7.026;2023-06-04T04:59:29;2.70;;;1.87;;
59271;SDS011;45043;51.068;7.026;2023-06-04T05:02:32;6.33;;;1.67;;
59271;SDS011;45043;51.068;7.026;2023-06-04T05:05:33;3.97;;;1.97;;
59271;SDS011;45043;51.068;7.026;2023-06-04T05:08:36;4.23;;;1.90;;
59271;SDS011;45043;51.068;7.026;2023-06-04T05:11:37;3.80;;;1.90;;
59271;SDS011;45043;51.068;7.026;2023-06-04T05:14:38;3.63;;;2.23;;
59271;SDS011;45043;51.068;7.026;2023-06-04T05:17:39;1.90;;;1.60;;
59271;SDS011;45043;51.068;7.026;2023-06-04T05:20:43;5.23;;;2.03;;
59271;SDS011;45043;51.068;7.026;2023-06-04T05:23:46;2.60;;;1.93;;
59271;SDS011;45043;51.068;7.026;2023-06-04T05:26:49;2.47;;;1.73;;
59271;SDS011;45043;51.068;7.026;2023-06-04T05:29:54;2.77;;;1.80;;
59271;SDS011;45043;51.068;7.026;2023-06-04T05:32:55;4.67;;;2.00;;
59271;SDS011;45043;51.068;7.026;2023-06-04T05:35:58;2.33;;;2.13;;
59271;SDS011;45043;51.068;7.026;2023-06-04T05:39:01;3.53;;;2.23;;
59271;SDS011;45043;51.068;7.026;2023-06-04T05:42:13;2.90;;;2.07;;
59271;SDS011;45043;51.068;7.026;2023-06-04T05:45:15;2.27;;;2.07;;
59271;SDS011;45043;51.068;7.026;2023-06-04T05:48:17;4.87;;;2.23;;
59271;SDS011;45043;51.068;7.026;2023-06-04T05:51:18;2.67;;;2.27;;
59271;SDS011;45043;51.068;7.026;2023-06-04T05:54:19;6.37;;;2.50;;
59271;SDS011;45043;51.068;7.026;2023-06-04T05:57:20;3.17;;;2.30;;
59271;SDS011;45043;51.068;7.026;2023-06-04T06:00:22;2.73;;;2.33;;
59271;SDS011;45043;51.068;7.026;2023-06-04T06:03:25;2.40;;;2.20;;
59271;SDS011;45043;51.068;7.026;2023-06-04T06:06:28;3.57;;;2.20;;
59271;SDS011;45043;51.068;7.026;2023-06-04T06:09:29;3.57;;;2.20;;
59271;SDS011;45043;51.068;7.026;2023-06-04T06:12:30;2.37;;;2.13;;
59271;SDS011;45043;51.068;7.026;2023-06-04T06:15:31;2.73;;;2.00;;
59271;SDS011;45043;51.068;7.026;2023-06-04T06:18:41;2.80;;;2.47;;
59271;SDS011;45043;51.068;7.026;2023-06-04T06:21:41;2.87;;;2.57;;
59271;SDS011;45043;51.068;7.026;2023-06-04T06:24:42;5.40;;;2.60;;
59271;SDS011;45043;51.068;7.026;2023-06-04T06:27:42;4.47;;;2.73;;
59271;SDS011;45043;51.068;7.026;2023-06-04T06:30:44;2.57;;;2.20;;
59271;SDS011;45043;51.068;7.026;2023-06-04T06:33:45;3.13;;;2.20;;
59271;SDS011;45043;51.068;7.026;2023-06-04T06:36:45;3.00;;;2.27;;
59271;SDS011;45043;51.068;7.026;2023-06-04T06:39:47;3.13;;;2.70;;
59271;SDS011;45043;51.068;7.026;2023-06-04T06:42:48;5.00;;;2.40;;
59271;SDS011;45043;51.068;7.026;2023-06-04T06:45:51;3.90;;;2.80;;
59271;SDS011;45043;51.068;7.026;2023-06-04T06:48:51;3.17;;;2.40;;
59271;SDS011;45043;51.068;7.026;2023-06-04T06:51:51;4.67;;;2.60;;
59271;SDS011;45043;51.068;7.026;2023-06-04T06:54:52;4.13;;;2.60;;
59271;SDS011;45043;51.068;7.026;2023-06-04T06:57:52;4.10;;;2.33;;
59271;SDS011;45043;51.068;7.026;2023-06-04T07:00:53;2.60;;;2.13;;
59271;SDS011;45043;51.068;7.026;2023-06-04T07:03:56;4.13;;;2.50;;
59271;SDS011;45043;51.068;7.026;2023-06-04T07:06:56;4.60;;;2.77;;
59271;SDS011;45043;51.068;7.026;2023-06-04T07:09:57;4.73;;;3.00;;
59271;SDS011;45043;51.068;7.026;2023-06-04T07:12:57;3.57;;;2.83;;
59271;SDS011;45043;51.068;7.026;2023-06-04T07:15:58;3.20;;;2.50;;
59271;SDS011;45043;51.068;7.026;2023-06-04T07:19:00;3.03;;;2.67;;
59271;SDS011;45043;51.068;7.026;2023-06-04T07:22:01;2.70;;;2.30;;
59271;SDS011;45043;51.068;7.026;2023-06-04T07:25:02;4.13;;;2.60;;
59271;SDS011;45043;51.068;7.026;2023-06-04T07:28:03;3.23;;;2.53;;
59271;SDS011;45043;51.068;7.026;2023-06-04T07:31:05;3.73;;;2.40;;
59271;SDS011;45043;51.068;7.026;2023-06-04T07:34:05;2.73;;;2.50;;
59271;SDS011;45043;51.068;7.026;2023-06-04T07:37:06;3.13;;;2.73;;
59271;SDS011;45043;51.068;7.026;2023-06-04T07:40:08;6.50;;;3.07;;
59271;SDS011;45043;51.068;7.026;2023-06-04T07:43:09;3.37;;;2.40;;
59271;SDS011;45043;51.068;7.026;2023-06-04T07:46:10;3.30;;;2.57;;
59271;SDS011;45043;51.068;7.026;2023-06-04T07:49:14;3.77;;;2.27;;
59271;SDS011;45043;51.068;7.026;2023-06-04T07:52:15;4.90;;;2.40;;
59271;SDS011;45043;51.068;7.026;2023-06-04T07:55:15;3.23;;;2.40;;
59271;SDS011;45043;51.068;7.026;2023-06-04T07:58:16;3.47;;;2.63;;
59271;SDS011;45043;51.068;7.026;2023-06-04T08:01:16;5.00;;;3.40;;
59271;SDS011;45043;51.068;7.026;2023-06-04T08:04:17;2.30;;;2.07;;
59271;SDS011;45043;51.068;7.026;2023-06-04T08:07:18;4.70;;;2.60;;
59271;SDS011;45043;51.068;7.026;2023-06-04T08:10:19;9.53;;;4.00;;
59271;SDS011;45043;51.068;7.026;2023-06-04T08:13:20;2.67;;;2.47;;
59271;SDS011;45043;51.068;7.026;2023-06-04T08:16:20;5.17;;;2.73;;
59271;SDS011;45043;51.068;7.026;2023-06-04T08:19:21;2.60;;;2.00;;
59271;SDS011;45043;51.068;7.026;2023-06-04T08:22:21;4.37;;;2.37;;
59271;SDS011;45043;51.068;7.026;2023-06-04T08:25:22;6.40;;;2.70;;
59271;SDS011;45043;51.068;7.026;2023-06-04T08:28:23;3.43;;;2.20;;
59271;SDS011;45043;51.068;7.026;2023-06-04T08:31:23;3.63;;;2.10;;
59271;SDS011;45043;51.068;7.026;2023-06-04T08:34:24;5.50;;;2.60;;
59271;SDS011;45043;51.068;7.026;2023-06-04T08:37:25;4.03;;;2.40;;
59271;SDS011;45043;51.068;7.026;2023-06-04T08:40:25;3.27;;;2.20;;
59271;SDS011;45043;51.068;7.026;2023-06-04T08:43:26;4.73;;;2.30;;
59271;SDS011;45043;51.068;7.026;2023-06-04T08:46:26;5.77;;;2.20;;
59271;SDS011;45043;51.068;7.026;2023-06-04T08:49:33;5.90;;;2.20;;
59271;SDS011;45043;51.068;7.026;2023-06-04T08:52:41;5.50;;;2.50;;
59271;SDS011;45043;51.068;7.026;2023-06-04T08:55:41;3.53;;;2.17;;
59271;SDS011;45043;51.068;7.026;2023-06-04T08:58:43;2.57;;;2.23;;
59271;SDS011;45043;51.068;7.026;2023-06-04T09:01:44;2.70;;;2.20;;
59271;SDS011;45043;51.068;7.026;2023-06-04T09:04:45;7.93;;;2.20;;
59271;SDS011;45043;51.068;7.026;2023-06-04T09:07:47;3.13;;;2.57;;
59271;SDS011;45043;51.068;7.026;2023-06-04T09:10:51;2.80;;;2.20;;
59271;SDS011;45043;51.068;7.026;2023-06-04T09:13:54;3.60;;;2.10;;
59271;SDS011;45043;51.068;7.026;2023-06-04T09:17:00;2.87;;;2.20;;
59271;SDS011;45043;51.068;7.026;2023-06-04T09:20:01;4.40;;;2.00;;
59271;SDS011;45043;51.068;7.026;2023-06-04T09:23:01;4.57;;;2.23;;
59271;SDS011;45043;51.068;7.026;2023-06-04T09:26:12;4.40;;;2.93;;
59271;SDS011;45043;51.068;7.026;2023-06-04T09:29:13;5.27;;;2.27;;
59271;SDS011;45043;51.068;7.026;2023-06-04T09:32:20;3.17;;;2.03;;
59271;SDS011;45043;51.068;7.026;2023-06-04T09:35:24;2.50;;;2.30;;
59271;SDS011;45043;51.068;7.026;2023-06-04T09:38:32;5.90;;;2.40;;
59271;SDS011;45043;51.068;7.026;2023-06-04T09:41:37;3.73;;;2.00;;
59271;SDS011;45043;51.068;7.026;2023-06-04T09:44:44;4.80;;;2.10;;
59271;SDS011;45043;51.068;7.026;2023-06-04T09:47:47;2.90;;;2.20;;
59271;SDS011;45043;51.068;7.026;2023-06-04T09:50:48;2.30;;;2.10;;
59271;SDS011;45043;51.068;7.026;2023-06-04T09:53:58;2.10;;;1.90;;
59271;SDS011;45043;51.068;7.026;2023-06-04T09:57:00;20.23;;;2.87;;
59271;SDS011;45043;51.068;7.026;2023-06-04T10:00:01;2.37;;;2.00;;
59271;SDS011;45043;51.068;7.026;2023-06-04T10:03:11;3.10;;;2.17;;
59271;SDS011;45043;51.068;7.026;2023-06-04T10:06:18;2.60;;;1.87;;
59271;SDS011;45043;51.068;7.026;2023-06-04T10:09:21;3.70;;;2.03;;
59271;SDS011;45043;51.068;7.026;2023-06-04T10:12:29;2.40;;;2.20;;
59271;SDS011;45043;51.068;7.026;2023-06-04T10:15:35;2.93;;;2.50;;
59271;SDS011;45043;51.068;7.026;2023-06-04T10:18:36;3.27;;;1.70;;
59271;SDS011;45043;51.068;7.026;2023-06-04T10:21:37;4.53;;;2.40;;
59271;SDS011;45043;51.068;7.026;2023-06-04T10:24:38;5.80;;;3.53;;
59271;SDS011;45043;51.068;7.026;2023-06-04T10:27:38;6.50;;;2.33;;
59271;SDS011;45043;51.068;7.026;2023-06-04T10:30:40;4.73;;;2.60;;
59271;SDS011;45043;51.068;7.026;2023-06-04T10:33:41;3.30;;;2.87;;
59271;SDS011;45043;51.068;7.026;2023-06-04T10:36:44;2.37;;;2.17;;
59271;SDS011;45043;51.068;7.026;2023-06-04T10:39:50;6.70;;;2.67;;
59271;SDS011;45043;51.068;7.026;2023-06-04T10:42:55;2.50;;;2.30;;
59271;SDS011;45043;51.068;7.026;2023-06-04T10:45:56;3.30;;;2.23;;
59271;SDS011;45043;51.068;7.026;2023-06-04T10:48:56;4.17;;;2.03;;
59271;SDS011;45043;51.068;7.026;2023-06-04T10:51:56;5.50;;;2.30;;
59271;SDS011;45043;51.068;7.026;2023-06-04T10:55:04;3.03;;;2.27;;
59271;SDS011;45043;51.068;7.026;2023-06-04T10:58:06;2.97;;;2.17;;
59271;SDS011;45043;51.068;7.026;2023-06-04T11:01:08;2.73;;;2.20;;
59271;SDS011;45043;51.068;7.026;2023-06-04T11:04:24;4.20;;;2.87;;
59271;SDS011;45043;51.068;7.026;2023-06-04T11:07:25;3.37;;;2.40;;
59271;SDS011;45043;51.068;7.026;2023-06-04T11:10:35;3.33;;;3.03;;
59271;SDS011;45043;51.068;7.026;2023-06-04T11:13:40;5.47;;;2.70;;
59271;SDS011;45043;51.068;7.026;2023-06-04T11:16:41;3.77;;;2.80;;
59271;SDS011;45043;51.068;7.026;2023-06-04T11:19:41;2.70;;;2.50;;
59271;SDS011;45043;51.068;7.026;2023-06-04T11:22:41;5.73;;;2.50;;
59271;SDS011;45043;51.068;7.026;2023-06-04T11:25:43;6.20;;;2.47;;
59271;SDS011;45043;51.068;7.026;2023-06-04T11:28:44;4.93;;;2.50;;
59271;SDS011;45043;51.068;7.026;2023-06-04T11:31:50;7.37;;;3.40;;
59271;SDS011;45043;51.068;7.026;2023-06-04T11:34:50;5.27;;;3.57;;
59271;SDS011;45043;51.068;7.026;2023-06-04T11:37:54;3.00;;;2.10;;
59271;SDS011;45043;51.068;7.026;2023-06-04T11:40:56;2.50;;;2.27;;
59271;SDS011;45043;51.068;7.026;2023-06-04T11:44:02;3.57;;;3.27;;
59271;SDS011;45043;51.068;7.026;2023-06-04T11:47:06;2.70;;;2.03;;
59271;SDS011;45043;51.068;7.026;2023-06-04T11:50:08;5.90;;;2.20;;
59271;SDS011;45043;51.068;7.026;2023-06-04T11:53:09;3.80;;;3.00;;
59271;SDS011;45043;51.068;7.026;2023-06-04T11:56:10;3.07;;;2.63;;
59271;SDS011;45043;51.068;7.026;2023-06-04T11:59:12;3.00;;;2.33;;
59271;SDS011;45043;51.068;7.026;2023-06-04T12:02:14;3.83;;;2.03;;
59271;SDS011;45043;51.068;7.026;2023-06-04T12:05:14;2.23;;;2.00;;
59271;SDS011;45043;51.068;7.026;2023-06-04T12:08:18;5.33;;;4.73;;
59271;SDS011;45043;51.068;7.026;2023-06-04T12:11:26;3.43;;;2.80;;
59271;SDS011;45043;51.068;7.026;2023-06-04T12:14:28;2.73;;;2.10;;
59271;SDS011;45043;51.068;7.026;2023-06-04T12:17:30;5.07;;;2.47;;
59271;SDS011;45043;51.068;7.026;2023-06-04T12:20:34;4.10;;;2.50;;
59271;SDS011;45043;51.068;7.026;2023-06-04T12:23:36;3.80;;;2.07;;
59271;SDS011;45043;51.068;7.026;2023-06-04T12:26:37;2.90;;;2.57;;
59271;SDS011;45043;51.068;7.026;2023-06-04T12:29:40;8.57;;;7.13;;
59271;SDS011;45043;51.068;7.026;2023-06-04T12:32:41;3.97;;;2.60;;
59271;SDS011;45043;51.068;7.026;2023-06-04T12:35:42;5.27;;;2.77;;
59271;SDS011;45043;51.068;7.026;2023-06-04T12:38:45;4.07;;;2.70;;
59271;SDS011;45043;51.068;7.026;2023-06-04T12:41:45;4.73;;;2.70;;
59271;SDS011;45043;51.068;7.026;2023-06-04T12:44:47;3.93;;;2.53;;
59271;SDS011;45043;51.068;7.026;2023-06-04T12:47:47;5.83;;;2.43;;
59271;SDS011;45043;51.068;7.026;2023-06-04T12:50:48;6.37;;;2.90;;
59271;SDS011;45043;51.068;7.026;2023-06-04T12:53:48;5.27;;;3.00;;
59271;SDS011;45043;51.068;7.026;2023-06-04T12:56:48;4.83;;;3.40;;
59271;SDS011;45043;51.068;7.026;2023-06-04T12:59:49;3.57;;;2.77;;
59271;SDS011;45043;51.068;7.026;2023-06-04T13:02:49;3.23;;;2.50;;
59271;SDS011;45043;51.068;7.026;2023-06-04T13:05:50;3.20;;;2.43;;
59271;SDS011;45043;51.068;7.026;2023-06-04T13:08:53;3.33;;;2.40;;
59271;SDS011;45043;51.068;7.026;2023-06-04T13:11:54;3.80;;;2.77;;
59271;SDS011;45043;51.068;7.026;2023-06-04T13:14:55;2.93;;;2.67;;
59271;SDS011;45043;51.068;7.026;2023-06-04T13:17:55;7.63;;;2.60;;
59271;SDS011;45043;51.068;7.026;2023-06-04T13:20:56;3.10;;;2.53;;
59271;SDS011;45043;51.068;7.026;2023-06-04T13:23:56;4.30;;;2.50;;
59271;SDS011;45043;51.068;7.026;2023-06-04T13:26:57;5.50;;;2.77;;
59271;SDS011;45043;51.068;7.026;2023-06-04T13:29:58;3.90;;;3.03;;
59271;SDS011;45043;51.068;7.026;2023-06-04T13:32:58;6.57;;;5.87;;
59271;SDS011;45043;51.068;7.026;2023-06-04T13:35:59;4.77;;;3.33;;
59271;SDS011;45043;51.068;7.026;2023-06-04T13:38:59;5.27;;;2.70;;
59271;SDS011;45043;51.068;7.026;2023-06-04T13:42:00;4.30;;;2.70;;
59271;SDS011;45043;51.068;7.026;2023-06-04T13:45:00;4.40;;;2.87;;
59271;SDS011;45043;51.068;7.026;2023-06-04T13:48:01;5.07;;;2.50;;
59271;SDS011;45043;51.068;7.026;2023-06-04T13:51:06;4.43;;;2.20;;
59271;SDS011;45043;51.068;7.026;2023-06-04T13:54:06;2.70;;;2.50;;
59271;SDS011;45043;51.068;7.026;2023-06-04T13:57:07;3.87;;;2.67;;
59271;SDS011;45043;51.068;7.026;2023-06-04T14:00:11;3.40;;;2.50;;
59271;SDS011;45043;51.068;7.026;2023-06-04T14:03:14;3.77;;;2.40;;
59271;SDS011;45043;51.068;7.026;2023-06-04T14:06:14;4.30;;;2.77;;
59271;SDS011;45043;51.068;7.026;2023-06-04T14:09:15;4.47;;;2.83;;
59271;SDS011;45043;51.068;7.026;2023-06-04T14:12:15;3.17;;;2.70;;
59271;SDS011;45043;51.068;7.026;2023-06-04T14:15:18;3.27;;;2.60;;
59271;SDS011;45043;51.068;7.026;2023-06-04T14:18:18;6.10;;;3.57;;
59271;SDS011;45043;51.068;7.026;2023-06-04T14:21:19;6.43;;;3.00;;
59271;SDS011;45043;51.068;7.026;2023-06-04T14:24:21;3.55;;;2.67;;
59271;SDS011;45043;51.068;7.026;2023-06-04T14:27:22;4.95;;;2.60;;
59271;SDS011;45043;51.068;7.026;2023-06-04T14:30:23;2.97;;;2.78;;
59271;SDS011;45043;51.068;7.026;2023-06-04T14:33:24;5.13;;;2.50;;
59271;SDS011;45043;51.068;7.026;2023-06-04T14:36:24;4.13;;;2.63;;
59271;SDS011;45043;51.068;7.026;2023-06-04T14:39:25;4.90;;;2.72;;
59271;SDS011;45043;51.068;7.026;2023-06-04T14:42:29;4.95;;;2.88;;
59271;SDS011;45043;51.068;7.026;2023-06-04T14:45:29;4.53;;;2.90;;
59271;SDS011;45043;51.068;7.026;2023-06-04T14:48:30;4.60;;;2.70;;
59271;SDS011;45043;51.068;7.026;2023-06-04T14:51:30;4.57;;;2.67;;
59271;SDS011;45043;51.068;7.026;2023-06-04T14:54:32;3.90;;;2.40;;
59271;SDS011;45043;51.068;7.026;2023-06-04T14:57:34;4.05;;;2.70;;
59271;SDS011;45043;51.068;7.026;2023-06-04T15:00:35;3.25;;;2.70;;
59271;SDS011;45043;51.068;7.026;2023-06-04T15:03:35;3.83;;;3.42;;
59271;SDS011;45043;51.068;7.026;2023-06-04T15:06:39;4.28;;;2.78;;
59271;SDS011;45043;51.068;7.026;2023-06-04T15:09:39;7.88;;;3.97;;
59271;SDS011;45043;51.068;7.026;2023-06-04T15:12:40;9.57;;;6.97;;
59271;SDS011;45043;51.068;7.026;2023-06-04T15:15:41;5.22;;;2.50;;
59271;SDS011;45043;51.068;7.026;2023-06-04T15:18:41;3.05;;;2.78;;
59271;SDS011;45043;51.068;7.026;2023-06-04T15:21:41;5.20;;;3.45;;
59271;SDS011;45043;51.068;7.026;2023-06-04T15:24:43;7.13;;;3.70;;
59271;SDS011;45043;51.068;7.026;2023-06-04T15:27:44;6.43;;;3.05;;
59271;SDS011;45043;51.068;7.026;2023-06-04T15:30:44;3.90;;;3.45;;
59271;SDS011;45043;51.068;7.026;2023-06-04T15:33:44;2.63;;;2.30;;
59271;SDS011;45043;51.068;7.026;2023-06-04T15:36:45;7.38;;;2.70;;
59271;SDS011;45043;51.068;7.026;2023-06-04T15:39:46;3.22;;;2.90;;
59271;SDS011;45043;51.068;7.026;2023-06-04T15:42:47;6.03;;;2.63;;
59271;SDS011;45043;51.068;7.026;2023-06-04T15:45:47;4.40;;;2.42;;
59271;SDS011;45043;51.068;7.026;2023-06-04T15:48:47;3.40;;;2.40;;
59271;SDS011;45043;51.068;7.026;2023-06-04T15:51:48;3.92;;;2.53;;
59271;SDS011;45043;51.068;7.026;2023-06-04T15:54:48;3.42;;;3.08;;
59271;SDS011;45043;51.068;7.026;2023-06-04T15:57:48;3.05;;;2.30;;
59271;SDS011;45043;51.068;7.026;2023-06-04T16:00:49;2.60;;;2.38;;
59271;SDS011;45043;51.068;7.026;2023-06-04T16:03:50;4.18;;;2.65;;
59271;SDS011;45043;51.068;7.026;2023-06-04T16:06:54;5.63;;;2.72;;
59271;SDS011;45043;51.068;7.026;2023-06-04T16:09:54;2.63;;;2.40;;
59271;SDS011;45043;51.068;7.026;2023-06-04T16:12:55;11.30;;;2.75;;
59271;SDS011;45043;51.068;7.026;2023-06-04T16:15:55;7.80;;;4.32;;
59271;SDS011;45043;51.068;7.026;2023-06-04T16:18:56;5.55;;;3.78;;
59271;SDS011;45043;51.068;7.026;2023-06-04T16:21:56;5.40;;;2.60;;
59271;SDS011;45043;51.068;7.026;2023-06-04T16:24:57;3.00;;;2.67;;
59271;SDS011;45043;51.068;7.026;2023-06-04T16:27:57;4.30;;;2.60;;
59271;SDS011;45043;51.068;7.026;2023-06-04T16:30:57;3.88;;;2.55;;
59271;SDS011;45043;51.068;7.026;2023-06-04T16:33:58;3.38;;;2.45;;
59271;SDS011;45043;51.068;7.026;2023-06-04T16:36:58;4.72;;;2.60;;
59271;SDS011;45043;51.068;7.026;2023-06-04T16:39:59;4.80;;;4.10;;
59271;SDS011;45043;51.068;7.026;2023-06-04T16:42:59;5.45;;;5.15;;
59271;SDS011;45043;51.068;7.026;2023-06-04T16:45:59;4.95;;;4.65;;
59271;SDS011;45043;51.068;7.026;2023-06-04T16:49:00;4.72;;;4.32;;
59271;SDS011;45043;51.068;7.026;2023-06-04T16:52:00;7.18;;;4.43;;
59271;SDS011;45043;51.068;7.026;2023-06-04T16:55:01;5.68;;;4.38;;
59271;SDS011;45043;51.068;7.026;2023-06-04T16:58:04;4.45;;;4.05;;
59271;SDS011;45043;51.068;7.026;2023-06-04T17:01:05;4.88;;;4.30;;
59271;SDS011;45043;51.068;7.026;2023-06-04T17:04:09;5.53;;;5.13;;
59271;SDS011;45043;51.068;7.026;2023-06-04T17:07:10;5.15;;;3.78;;
59271;SDS011;45043;51.068;7.026;2023-06-04T17:10:10;5.22;;;4.93;;
59271;SDS011;45043;51.068;7.026;2023-06-04T17:13:11;4.18;;;3.83;;
59271;SDS011;45043;51.068;7.026;2023-06-04T17:16:11;5.28;;;4.75;;
59271;SDS011;45043;51.068;7.026;2023-06-04T17:19:13;4.35;;;3.90;;
59271;SDS011;45043;51.068;7.026;2023-06-04T17:22:13;4.80;;;4.30;;
59271;SDS011;45043;51.068;7.026;2023-06-04T17:25:14;6.75;;;3.78;;
59271;SDS011;45043;51.068;7.026;2023-06-04T17:28:14;4.07;;;3.67;;
59271;SDS011;45043;51.068;7.026;2023-06-04T17:31:15;5.50;;;5.00;;
59271;SDS011;45043;51.068;7.026;2023-06-04T17:34:18;3.53;;;3.33;;
59271;SDS011;45043;51.068;7.026;2023-06-04T17:37:19;4.00;;;3.70;;
59271;SDS011;45043;51.068;7.026;2023-06-04T17:40:19;3.80;;;3.40;;
59271;SDS011;45043;51.068;7.026;2023-06-04T17:43:20;6.30;;;3.60;;
59271;SDS011;45043;51.068;7.026;2023-06-04T17:46:21;6.05;;;3.90;;
59271;SDS011;45043;51.068;7.026;2023-06-04T17:49:21;3.92;;;3.63;;
59271;SDS011;45043;51.068;7.026;2023-06-04T17:52:22;4.38;;;3.97;;
59271;SDS011;45043;51.068;7.026;2023-06-04T17:55:23;4.63;;;3.53;;
59271;SDS011;45043;51.068;7.026;2023-06-04T17:58:23;5.10;;;4.75;;
59271;SDS011;45043;51.068;7.026;2023-06-04T18:01:23;3.85;;;3.38;;
59271;SDS011;45043;51.068;7.026;2023-06-04T18:04:24;5.78;;;3.60;;
59271;SDS011;45043;51.068;7.026;2023-06-04T18:07:24;3.90;;;3.45;;
59271;SDS011;45043;51.068;7.026;2023-06-04T18:10:25;4.10;;;3.80;;
59271;SDS011;45043;51.068;7.026;2023-06-04T18:13:26;5.25;;;3.50;;
59271;SDS011;45043;51.068;7.026;2023-06-04T18:16:26;4.63;;;3.70;;